WAMM

Manado/Sam Ratulang International Airport

Airport
ICAO code
WAMM
IATA Code
MDC
Summary
ICAO Region
APAC
ICAO Territory
Location

Manado, North Sulawesi,

Serving
Manado
Elevation
264 ft
Coordinates
1° 32' 56" N , 124° 55' 36" E
KCC
Metar
Observation
WAMM 282230Z VRB01KT 9999 VCSH SCT019 25/24 Q1009 NOSIG
Station
Menado / Dr. Sam Ratulangi
Date/Time
2022-11-28 22:30:00
Wind speed
01 kts
Lowest cloud amount
scattered clouds
Temperature
25°C
Dew point
24°C
Humidity
94%
QNH
1009 hPa
Weather condition
in vicinity: showers

Description

Sam Ratulangi International Airport (SRA), also known as Manado International Airport, is located in North Sulawesi, 13 km northeast of Manado.

Climatology

Tropical Rainforest climate (Köppen climate classification Af) - almost no distinct seasons, average daily temperature around 27°C throughout the year. Extensive cloud cover and heavy rainfall prevent temperatures from rising much over 33°C. The diurnal temperature change is between 2°C and 5°C which is greater than the annual temperature range of 2°C. Rainfall is heavy and is usually convectional and in the afternoon.

Airport map

Aerial View

SKYbrary Partners:

Safety knowledge contributed by: